Time;durP1;ratioP1;P1;durP2;ratioP2;P2;SDS_P1;SDS_P2;PMS_P1;PMS_P2;Temp;Humidity;BMP_temperature;BMP_pressure;BME280_temperature;BME280_humidity;BME280_pressure;Samples;Min_cycle;Max_cycle;Signal;HPM_P1;HPM_P2
2021/01/19 00:00:08;;;;;;;8.90;8.10;;;;;;;21.46;37.79;101146.53;6185681;23;20177;-59
2021/01/19 00:02:34;;;;;;;9.30;8.50;;;;;;;21.48;37.51;101147.19;6159628;23;20199;-59
2021/01/19 00:05:00;;;;;;;8.93;8.13;;;;;;;21.46;37.55;101143.81;6185649;23;20164;-59
2021/01/19 00:07:28;;;;;;;9.03;8.23;;;;;;;21.43;37.65;101134.13;6159351;23;20678;-59
2021/01/19 00:09:54;;;;;;;8.50;7.80;;;;;;;21.40;37.38;101129.03;6185311;23;20181;-60
2021/01/19 00:12:20;;;;;;;8.50;7.70;;;;;;;21.38;37.57;101124.78;6185528;23;20185;-60
2021/01/19 00:14:46;;;;;;;8.70;8.00;;;;;;;21.36;37.53;101118.69;6184265;23;20169;-60
2021/01/19 00:17:13;;;;;;;8.70;7.90;;;;;;;21.30;37.37;101116.66;6185149;23;20172;-59
2021/01/19 00:19:39;;;;;;;8.60;7.80;;;;;;;21.27;37.30;101109.66;6185193;23;20263;-59
2021/01/19 00:22:05;;;;;;;9.00;8.10;;;;;;;21.24;37.49;101106.44;6185414;23;20161;-59
2021/01/19 00:24:31;;;;;;;8.83;8.00;;;;;;;21.20;37.50;101100.47;6185582;23;20188;-58
2021/01/19 00:26:57;;;;;;;8.03;7.33;;;;;;;21.19;37.18;101097.94;6185628;23;20240;-58
2021/01/19 00:29:23;;;;;;;7.67;6.97;;;;;;;21.18;37.40;101091.66;6185528;23;20191;-59
2021/01/19 00:31:49;;;;;;;7.83;7.13;;;;;;;21.20;37.26;101083.31;6159560;23;20541;-58
2021/01/19 00:34:16;;;;;;;7.60;6.90;;;;;;;21.19;37.35;101087.06;6159295;23;20161;-57
2021/01/19 00:36:42;;;;;;;7.93;7.23;;;;;;;21.19;37.61;101087.06;6185171;23;20175;-59
2021/01/19 00:39:08;;;;;;;7.80;7.10;;;;;;;21.19;37.46;101087.06;6159234;23;20189;-60
2021/01/19 00:41:34;;;;;;;6.77;6.23;;;;;;;21.20;37.47;101083.31;6185079;23;20185;-59
2021/01/19 00:44:00;;;;;;;7.00;6.40;;;;;;;21.21;37.45;101090.44;6184985;23;20223;-60
2021/01/19 00:46:26;;;;;;;7.27;6.67;;;;;;;21.22;37.88;101078.53;6185039;23;20654;-59
2021/01/19 00:48:53;;;;;;;7.03;6.43;;;;;;;21.24;37.86;101065.63;6185220;23;20235;-58
2021/01/19 00:51:19;;;;;;;6.70;6.10;;;;;;;21.25;37.95;101064.59;6185345;23;20161;-60
2021/01/19 00:53:45;;;;;;;6.87;6.27;;;;;;;21.28;37.79;101069.69;6185282;23;20168;-59
2021/01/19 00:56:11;;;;;;;6.70;6.20;;;;;;;21.31;38.07;101069.34;6185083;23;20168;-59
2021/01/19 00:58:38;;;;;;;6.47;5.97;;;;;;;21.34;37.86;101063.53;6184929;23;20184;-60
2021/01/19 01:01:04;;;;;;;6.10;5.60;;;;;;;21.37;38.06;101057.75;6184716;23;20193;-61
2021/01/19 01:03:30;;;;;;;6.40;5.83;;;;;;;21.39;37.76;101059.25;6185070;23;20157;-60
2021/01/19 01:05:56;;;;;;;6.30;5.80;;;;;;;21.41;37.84;101051.75;6184958;23;20549;-59
2021/01/19 01:08:23;;;;;;;6.00;5.50;;;;;;;21.43;37.76;101046.97;6185143;23;20487;-59
2021/01/19 01:10:50;;;;;;;5.77;5.27;;;;;;;21.46;37.82;101051.22;6184686;23;20177;-58
2021/01/19 01:13:17;;;;;;;5.67;5.17;;;;;;;21.48;37.49;101042.84;6185241;23;20248;-59
2021/01/19 01:15:43;;;;;;;5.67;5.17;;;;;;;21.48;37.68;101043.69;6185491;23;20165;-59
2021/01/19 01:18:12;;;;;;;5.77;5.27;;;;;;;21.49;37.48;101028.22;6184937;23;20168;-59
2021/01/19 01:20:39;;;;;;;5.60;5.10;;;;;;;21.48;37.38;101040.97;6184706;23;20239;-59
2021/01/19 01:23:05;;;;;;;6.20;5.70;;;;;;;21.44;37.19;101024.16;6185153;23;20172;-60
2021/01/19 01:25:31;;;;;;;5.67;5.27;;;;;;;21.42;37.17;101028.09;6158951;23;20325;-59
2021/01/19 01:27:57;;;;;;;5.87;5.37;;;;;;;21.41;37.15;101037.28;6184798;23;20185;-60
2021/01/19 01:30:23;;;;;;;5.87;5.37;;;;;;;21.36;37.19;101036.97;6184685;23;20192;-59
2021/01/19 01:32:53;;;;;;;5.90;5.40;;;;;;;21.33;37.35;101034.63;6184906;23;20173;-57
2021/01/19 01:35:22;;;;;;;5.57;5.17;;;;;;;21.30;37.20;101034.97;6184771;23;20252;-57
2021/01/19 01:37:52;;;;;;;5.40;5.00;;;;;;;21.27;37.12;101021.69;6158665;23;20188;-59
2021/01/19 01:40:20;;;;;;;5.47;4.97;;;;;;;21.24;37.24;101022.06;6183310;23;20501;-59
2021/01/19 01:42:46;;;;;;;5.40;4.97;;;;;;;21.22;37.12;101018.63;6185177;23;20243;-57
2021/01/19 01:45:12;;;;;;;5.27;4.87;;;;;;;21.23;37.14;101012.16;6184993;23;20191;-59
2021/01/19 01:47:39;;;;;;;5.10;4.70;;;;;;;21.22;37.34;101019.47;6158740;23;20168;-58
2021/01/19 01:50:06;;;;;;;5.23;4.83;;;;;;;21.21;37.43;101008.75;6184589;23;20538;-59
2021/01/19 01:52:32;;;;;;;5.00;4.60;;;;;;;21.22;37.21;101005.00;6158561;23;20219;-58
2021/01/19 01:54:58;;;;;;;4.80;4.40;;;;;;;21.21;37.08;100997.88;6184490;23;20157;-58
2021/01/19 01:57:24;;;;;;;4.57;4.17;;;;;;;21.20;37.28;100990.75;6158387;23;20571;-56
2021/01/19 01:59:50;;;;;;;4.70;4.30;;;;;;;21.20;37.50;100986.13;6158316;23;20180;-57
2021/01/19 02:02:17;;;;;;;4.50;4.20;;;;;;;21.19;37.38;100983.59;6158387;23;20198;-59
2021/01/19 02:04:43;;;;;;;4.63;4.27;;;;;;;21.20;37.53;100975.25;6184505;23;20167;-60
2021/01/19 02:07:21;;;;;;;4.50;4.20;;;;;;;21.21;37.52;100973.38;6184667;23;20176;-60
2021/01/19 02:09:49;;;;;;;4.50;4.20;;;;;;;21.19;37.34;100961.81;6184493;23;20184;-59
2021/01/19 02:12:18;;;;;;;4.70;4.40;;;;;;;21.18;37.52;100960.97;6134415;23;20157;-59
2021/01/19 02:15:04;;;;;;;4.20;3.90;;;;;;;21.19;37.43;100951.78;6158413;23;20164;-59
2021/01/19 02:17:46;;;;;;;4.30;4.00;;;;;;;21.18;37.39;100944.63;6136596;23;20167;-59
2021/01/19 02:20:34;;;;;;;4.67;4.27;;;;;;;21.18;37.20;100932.91;6136246;23;20181;-59
2021/01/19 02:23:12;;;;;;;4.60;4.20;;;;;;;21.17;37.35;100932.06;6184259;23;20230;-59
2021/01/19 02:25:50;;;;;;;4.03;3.73;;;;;;;21.17;37.45;100917.59;6158225;23;20442;-57
2021/01/19 02:28:26;;;;;;;4.10;3.80;;;;;;;21.15;37.58;100899.56;6184151;23;20164;-59
2021/01/19 02:31:25;;;;;;;4.37;3.97;;;;;;;21.14;37.31;100897.88;6184084;23;20191;-59
2021/01/19 02:34:12;;;;;;;4.10;3.80;;;;;;;21.12;37.33;100886.31;6162678;23;20292;-59
2021/01/19 02:37:10;;;;;;;3.63;3.33;;;;;;;21.10;37.48;100880.22;6184507;23;20187;-59
2021/01/19 02:39:38;;;;;;;4.00;3.70;;;;;;;21.08;37.42;100868.66;6158345;23;20176;-59
2021/01/19 02:42:07;;;;;;;3.40;3.20;;;;;;;21.07;37.73;100861.53;6184060;23;20289;-57
2021/01/19 02:44:35;;;;;;;3.90;3.60;;;;;;;21.08;37.80;100856.94;6184279;23;20161;-59
2021/01/19 02:47:01;;;;;;;4.30;3.90;;;;;;;21.07;37.74;100850.66;6158668;23;20165;-58
2021/01/19 02:49:27;;;;;;;3.63;3.33;;;;;;;21.08;37.86;100841.44;6158327;23;20517;-55
2021/01/19 02:51:53;;;;;;;3.27;3.07;;;;;;;21.10;38.00;100842.13;6183893;23;20448;-58
2021/01/19 02:54:19;;;;;;;3.60;3.30;;;;;;;21.12;38.22;100831.88;6183945;23;20615;-57
2021/01/19 02:56:48;;;;;;;3.47;3.20;;;;;;;21.14;38.18;100829.84;6158439;23;20160;-58
2021/01/19 02:59:18;;;;;;;3.30;3.10;;;;;;;21.19;38.09;100820.25;6184177;23;20191;-57
2021/01/19 03:01:48;;;;;;;3.50;3.27;;;;;;;21.23;38.09;100814.25;6158792;23;20197;-56
2021/01/19 03:04:15;;;;;;;3.23;3.03;;;;;;;21.26;38.23;100807.63;6159037;23;20157;-59
2021/01/19 03:06:42;;;;;;;3.13;2.93;;;;;;;21.29;38.09;100799.94;6158355;23;20161;-59
2021/01/19 03:09:08;;;;;;;3.57;3.27;;;;;;;21.31;38.16;100797.91;6134067;23;20524;-59
2021/01/19 03:11:34;;;;;;;3.20;3.00;;;;;;;21.35;38.14;100803.84;6133816;23;20157;-59
2021/01/19 03:14:01;;;;;;;2.90;2.70;;;;;;;21.38;37.87;100790.69;6158350;23;20264;-59
2021/01/19 03:16:27;;;;;;;2.90;2.70;;;;;;;21.41;37.97;100789.47;6183904;23;20157;-58
2021/01/19 03:18:53;;;;;;;2.97;2.77;;;;;;;21.43;37.66;100776.50;6183954;23;20702;-58
2021/01/19 03:21:19;;;;;;;2.97;2.77;;;;;;;21.44;37.58;100783.66;6183730;23;20272;-57
2021/01/19 03:23:45;;;;;;;3.10;2.90;;;;;;;21.45;37.72;100777.16;6159853;23;20165;-59
2021/01/19 03:26:11;;;;;;;3.20;3.00;;;;;;;21.44;37.48;100781.78;6159915;23;20171;-60
2021/01/19 03:28:38;;;;;;;2.93;2.73;;;;;;;21.44;37.63;100776.31;6185947;23;20157;-59
2021/01/19 03:31:04;;;;;;;2.97;2.77;;;;;;;21.43;37.59;100752.84;6185839;23;20158;-60
2021/01/19 03:33:30;;;;;;;2.90;2.70;;;;;;;21.41;37.42;100749.47;6186006;23;20188;-59
2021/01/19 03:35:56;;;;;;;2.70;2.50;;;;;;;21.40;37.46;100745.06;6160109;23;20188;-60
2021/01/19 03:38:22;;;;;;;2.87;2.67;;;;;;;21.38;37.38;100733.50;6185673;23;20167;-59
2021/01/19 03:40:49;;;;;;;2.90;2.70;;;;;;;21.35;37.12;100733.03;6159407;23;20193;-60
2021/01/19 03:43:15;;;;;;;2.90;2.70;;;;;;;21.32;37.42;100714.34;6185574;23;20215;-59
2021/01/19 03:45:41;;;;;;;2.90;2.70;;;;;;;21.27;37.21;100719.47;6185571;23;20613;-60
2021/01/19 03:48:07;;;;;;;2.90;2.70;;;;;;;21.24;37.43;100715.25;6159685;23;20161;-60
2021/01/19 03:50:33;;;;;;;2.47;2.30;;;;;;;21.22;37.04;100705.56;6159543;23;20497;-60
2021/01/19 03:52:59;;;;;;;2.70;2.50;;;;;;;21.22;37.32;100711.00;6185710;23;20165;-59
2021/01/19 03:55:27;;;;;;;2.87;2.67;;;;;;;21.22;37.12;100698.25;6185739;23;20582;-56
2021/01/19 03:57:53;;;;;;;2.50;2.30;;;;;;;21.22;37.19;100697.38;6185578;23;20181;-59
2021/01/19 04:00:19;;;;;;;2.70;2.50;;;;;;;21.21;37.41;100682.09;6185416;23;20180;-56
2021/01/19 04:02:45;;;;;;;3.00;2.80;;;;;;;21.20;37.45;100686.69;6185436;23;20177;-58
2021/01/19 04:05:12;;;;;;;2.80;2.60;;;;;;;21.20;37.50;100675.81;6185390;23;20479;-59
2021/01/19 04:07:39;;;;;;;2.50;2.30;;;;;;;21.20;37.45;100670.34;6185682;23;20222;-58
2021/01/19 04:10:09;;;;;;;2.80;2.60;;;;;;;21.21;37.42;100665.75;6185175;23;20239;-60
2021/01/19 04:12:35;;;;;;;2.30;2.20;;;;;;;21.20;37.51;100658.63;6185635;23;20551;-60
2021/01/19 04:15:02;;;;;;;2.70;2.50;;;;;;;21.19;37.54;100643.31;6159519;23;20185;-60
2021/01/19 04:17:28;;;;;;;2.30;2.20;;;;;;;21.18;37.61;100642.47;6160174;23;20239;-60
2021/01/19 04:19:54;;;;;;;2.47;2.37;;;;;;;21.18;37.38;100633.47;6185397;23;20263;-58
2021/01/19 04:22:21;;;;;;;2.40;2.20;;;;;;;21.19;37.43;100635.16;6185266;23;20574;-59
2021/01/19 04:24:47;;;;;;;2.43;2.27;;;;;;;21.17;37.44;100623.63;6185425;23;20180;-59
2021/01/19 04:27:13;;;;;;;2.10;2.00;;;;;;;21.16;37.35;100620.06;6185445;23;20161;-59
2021/01/19 04:29:39;;;;;;;2.60;2.40;;;;;;;21.15;37.53;100616.47;6185043;23;20181;-57
2021/01/19 04:32:05;;;;;;;2.17;2.07;;;;;;;21.15;37.55;100602.88;6185134;23;20153;-60
2021/01/19 04:34:31;;;;;;;2.50;2.30;;;;;;;21.15;37.41;100596.59;6184927;23;20168;-60
2021/01/19 04:36:57;;;;;;;2.30;2.10;;;;;;;21.14;37.32;100598.47;6185439;23;20157;-58
2021/01/19 04:39:24;;;;;;;2.37;2.20;;;;;;;21.12;37.28;100596.97;6185403;23;20268;-59
2021/01/19 04:41:50;;;;;;;2.60;2.40;;;;;;;21.12;37.37;100591.53;6185203;23;20188;-59
2021/01/19 04:44:16;;;;;;;2.10;2.00;;;;;;;21.11;37.58;100573.50;6134477;23;20240;-59
2021/01/19 04:46:44;;;;;;;2.20;2.10;;;;;;;21.11;37.65;100573.50;6185204;23;20168;-59
2021/01/19 04:49:19;;;;;;;2.30;2.10;;;;;;;21.11;37.62;100574.34;6159464;23;20191;-57
2021/01/19 04:51:49;;;;;;;2.13;1.90;;;;;;;21.12;37.57;100567.03;6159399;23;20191;-56
2021/01/19 04:54:18;;;;;;;2.00;1.90;;;;;;;21.12;37.86;100570.59;6185424;23;20169;-59
2021/01/19 04:56:56;;;;;;;2.30;2.20;;;;;;;21.14;37.84;100560.34;6184782;23;20244;-60
2021/01/19 04:59:25;;;;;;;2.03;1.93;;;;;;;21.17;38.09;100555.56;6134713;23;20366;-60
2021/01/19 05:01:54;;;;;;;1.83;1.73;;;;;;;21.18;37.90;100541.75;6184763;23;20271;-56
2021/01/19 05:04:26;;;;;;;1.93;1.80;;;;;;;21.19;38.17;100542.59;6184943;23;20164;-57
2021/01/19 05:07:20;;;;;;;1.90;1.80;;;;;;;21.23;37.87;100536.59;6185294;23;20164;-57
2021/01/19 05:13:10;;;;;;;2.30;2.10;;;;;;;21.30;38.11;100523.97;6185076;23;20156;-57
2021/01/19 05:15:45;;;;;;;1.77;1.67;;;;;;;21.32;37.90;100519.16;6159258;23;20236;-60
2021/01/19 05:18:17;;;;;;;1.87;1.77;;;;;;;21.36;37.87;100519.63;6184921;23;20164;-59
2021/01/19 05:20:48;;;;;;;1.70;1.60;;;;;;;21.38;37.74;100506.66;6184468;23;20631;-60
2021/01/19 05:23:21;;;;;;;1.77;1.67;;;;;;;21.37;37.78;100500.38;6184595;23;20618;-60
2021/01/19 05:26:00;;;;;;;1.70;1.60;;;;;;;21.41;37.87;100492.66;6184695;23;20510;-58
2021/01/19 05:28:40;;;;;;;1.90;1.80;;;;;;;21.42;37.76;100484.28;6184753;23;20145;-59
2021/01/19 05:31:27;;;;;;;1.77;1.67;;;;;;;21.42;37.45;100483.44;6183461;23;20163;-60
2021/01/19 05:33:56;;;;;;;1.80;1.70;;;;;;;21.43;37.49;100475.09;6183870;23;20230;-58
2021/01/19 05:36:33;;;;;;;1.67;1.57;;;;;;;21.43;37.47;100468.78;6184840;23;20191;-60
2021/01/19 05:38:59;;;;;;;1.70;1.60;;;;;;;21.41;37.45;100465.44;6184710;23;20177;-59
2021/01/19 05:41:38;;;;;;;1.87;1.77;;;;;;;21.41;37.23;100463.53;6184562;23;20184;-59
2021/01/19 05:44:17;;;;;;;1.60;1.50;;;;;;;21.41;37.37;100465.44;6184695;23;20190;-60
2021/01/19 05:46:59;;;;;;;1.30;1.30;;;;;;;21.37;37.30;100442.34;6158112;23;20153;-60
2021/01/19 05:49:41;;;;;;;1.70;1.60;;;;;;;21.33;36.97;100435.59;6184249;23;20185;-60
2021/01/19 05:52:10;;;;;;;1.93;1.70;;;;;;;21.28;37.09;100432.59;6184428;23;20168;-59
2021/01/19 05:54:47;;;;;;;1.70;1.60;;;;;;;21.29;37.12;100417.94;6184785;23;20243;-60
2021/01/19 05:57:15;;;;;;;1.70;1.60;;;;;;;21.29;37.25;100420.66;6160208;23;20160;-60
2021/01/19 05:59:42;;;;;;;1.70;1.60;;;;;;;21.27;37.29;100404.53;6184177;23;20196;-60
2021/01/19 06:02:15;;;;;;;1.60;1.50;;;;;;;21.26;37.32;100399.28;6184216;23;20641;-58
2021/01/19 06:04:45;;;;;;;2.10;1.90;;;;;;;21.24;37.44;100383.16;6184484;23;20165;-59
2021/01/19 06:07:12;;;;;;;1.60;1.50;;;;;;;21.22;37.10;100378.91;6184742;23;20184;-59
2021/01/19 06:09:39;;;;;;;1.60;1.50;;;;;;;21.22;37.24;100382.47;6158450;23;20264;-60
2021/01/19 06:12:05;;;;;;;1.63;1.53;;;;;;;21.21;37.28;100382.66;6184247;23;20220;-59
2021/01/19 06:14:32;;;;;;;1.40;1.30;;;;;;;21.20;37.47;100367.38;6158178;23;20525;-58
2021/01/19 06:17:12;;;;;;;1.47;1.37;;;;;;;21.21;37.49;100372.63;6158196;23;20290;-60
2021/01/19 06:19:40;;;;;;;1.70;1.60;;;;;;;21.19;37.56;100354.78;6184404;23;20185;-58
2021/01/19 06:22:11;;;;;;;1.70;1.60;;;;;;;21.19;37.39;100341.19;6184416;23;20185;-58
2021/01/19 06:24:44;;;;;;;1.60;1.50;;;;;;;21.19;37.24;100350.19;6184523;23;20570;-57
2021/01/19 06:27:12;;;;;;;1.60;1.50;;;;;;;21.18;37.47;100358.56;6184064;23;20175;-59
2021/01/19 06:29:38;;;;;;;1.63;1.53;;;;;;;21.15;37.25;100338.84;6184051;23;20200;-58
2021/01/19 06:32:07;;;;;;;1.60;1.50;;;;;;;21.15;37.40;100330.69;6184511;23;20164;-60
2021/01/19 06:34:38;;;;;;;1.50;1.40;;;;;;;21.16;37.39;100328.81;6184031;23;20241;-60
2021/01/19 06:37:05;;;;;;;1.50;1.40;;;;;;;21.13;37.38;100324.59;6183810;23;20193;-59
2021/01/19 06:39:40;;;;;;;1.47;1.37;;;;;;;21.13;37.22;100327.31;6183755;23;20942;-59
2021/01/19 06:42:16;;;;;;;1.40;1.30;;;;;;;21.11;37.28;100323.13;6183832;23;20544;-59
2021/01/19 06:44:45;;;;;;;1.60;1.50;;;;;;;21.11;37.28;100329.41;6184130;23;20164;-59
2021/01/19 06:47:13;;;;;;;1.40;1.30;;;;;;;21.11;37.60;100313.06;6184201;23;20463;-59
2021/01/19 06:49:39;;;;;;;1.23;1.13;;;;;;;21.09;37.66;100315.16;6157716;23;20539;-60
2021/01/19 06:52:15;;;;;;;1.37;1.30;;;;;;;21.12;37.88;100309.31;6183827;23;20210;-59
2021/01/19 06:54:53;;;;;;;1.57;1.47;;;;;;;21.12;37.94;100303.88;6133893;23;20228;-59
2021/01/19 06:58:11;;;;;;;1.47;1.37;;;;;;;21.17;37.66;100308.72;6183784;23;20246;-58
2021/01/19 07:00:39;;;;;;;1.23;1.20;;;;;;;21.18;37.87;100294.06;6170159;23;20618;-57
2021/01/19 07:03:22;;;;;;;1.30;1.20;;;;;;;21.22;37.96;100294.53;6185960;23;20223;-59
2021/01/19 07:05:53;;;;;;;1.23;1.13;;;;;;;21.24;38.05;100289.75;6161643;23;20152;-56
2021/01/19 07:08:19;;;;;;;1.27;1.17;;;;;;;21.26;37.93;100287.66;6185942;23;20161;-57
2021/01/19 07:10:45;;;;;;;1.40;1.30;;;;;;;21.29;37.88;100273.66;6185513;23;20580;-60
2021/01/19 07:13:23;;;;;;;1.10;1.10;;;;;;;21.33;38.09;100254.03;6185864;23;20540;-57
2021/01/19 07:16:05;;;;;;;1.50;1.40;;;;;;;21.37;37.94;100257.22;6160769;23;20156;-58
2021/01/19 07:18:43;;;;;;;1.30;1.20;;;;;;;21.39;37.75;100255.13;6186216;23;20183;-57
2021/01/19 07:21:10;;;;;;;1.20;1.10;;;;;;;21.40;37.59;100251.38;6186120;23;20184;-61
2021/01/19 07:23:45;;;;;;;1.30;1.20;;;;;;;21.43;37.84;100218.28;6185896;23;20187;-61
2021/01/19 07:26:21;;;;;;;1.10;1.10;;;;;;;21.43;37.52;100238.19;6185863;23;20490;-60
2021/01/19 07:28:48;;;;;;;1.20;1.10;;;;;;;21.43;37.37;100218.28;6159462;23;20153;-59
2021/01/19 07:31:19;;;;;;;1.00;1.00;;;;;;;21.45;37.60;100213.47;6185562;23;20567;-59
2021/01/19 07:33:53;;;;;;;1.10;1.10;;;;;;;21.43;37.32;100210.13;6185595;23;20522;-59
2021/01/19 07:36:20;;;;;;;1.30;1.20;;;;;;;21.42;37.28;100205.72;6185522;23;20248;-59
2021/01/19 07:38:47;;;;;;;1.10;1.10;;;;;;;21.39;37.40;100203.41;6159441;23;20252;-60
2021/01/19 07:41:13;;;;;;;1.00;1.00;;;;;;;21.37;37.21;100186.41;6159465;23;20192;-59
2021/01/19 07:43:39;;;;;;;1.10;1.00;;;;;;;21.33;37.46;100194.16;6158752;23;20173;-53
2021/01/19 09:23:21;;;;;;;6.60;6.00;;;;;;;22.17;38.98;100070.47;6169056;22;20212;-60
2021/01/19 09:25:47;;;;;;;6.57;5.97;;;;;;;22.19;39.27;100082.84;6160438;23;20172;-60
2021/01/19 09:28:14;;;;;;;7.10;6.50;;;;;;;22.21;39.03;100058.94;6211397;23;20255;-60
2021/01/19 09:30:40;;;;;;;7.07;6.47;;;;;;;22.24;38.95;100063.13;6210973;23;20235;-54
2021/01/19 09:33:11;;;;;;;7.50;6.80;;;;;;;22.25;39.01;100070.28;6211047;23;20194;-53
2021/01/19 09:35:38;;;;;;;6.80;6.20;;;;;;;22.26;38.88;100064.63;6211291;23;20160;-60
2021/01/19 09:38:04;;;;;;;6.27;5.77;;;;;;;22.27;38.84;100057.28;6185040;23;20172;-61
2021/01/19 09:40:31;;;;;;;6.47;5.90;;;;;;;22.29;38.96;100063.34;6184921;23;20191;-60
2021/01/19 09:42:58;;;;;;;6.22;5.72;;;;;;;22.29;38.50;100053.28;6196241;22;20215;-37
2021/01/19 09:45:24;;;;;;;6.27;5.67;;;;;;;22.31;38.92;100048.47;6183271;23;20231;-43
2021/01/19 09:47:50;;;;;;;6.33;5.63;;;;;;;22.32;38.80;100052.88;6183528;23;20171;-44
2021/01/19 09:50:16;;;;;;;5.70;5.20;;;;;;;22.35;38.77;100052.44;6182949;23;20157;-49
2021/01/19 09:52:46;;;;;;;5.50;5.00;;;;;;;22.39;38.56;100049.28;6210654;23;20157;-44
2021/01/19 09:55:20;;;;;;;5.77;5.27;;;;;;;22.42;38.93;100044.25;6211089;23;20172;-47
2021/01/19 09:58:08;;;;;;;5.10;4.70;;;;;;;22.45;38.65;100054.75;6212722;23;20586;-42
2021/01/19 10:00:37;;;;;;;5.27;4.87;;;;;;;22.48;38.56;100056.25;6190973;23;20160;-47
2021/01/19 10:03:16;;;;;;;5.00;4.60;;;;;;;22.52;38.60;100052.88;6213998;23;20621;-43
2021/01/19 10:05:43;;;;;;;4.90;4.50;;;;;;;22.54;38.56;100061.69;6214218;23;20179;-41
2021/01/19 10:08:09;;;;;;;4.90;4.50;;;;;;;22.57;38.88;100049.50;6214363;23;20609;-37
2021/01/19 10:10:41;;;;;;;6.07;4.60;;;;;;;22.60;38.92;100049.09;6211558;23;20160;-37
2021/01/19 10:13:08;;;;;;;17.13;5.93;;;;;;;22.64;38.89;100048.44;6210465;23;20733;-35
2021/01/19 10:15:36;;;;;;;5.67;4.27;;;;;;;22.68;38.75;100043.41;6184960;23;20157;-38
2021/01/19 10:18:02;;;;;;;4.80;4.40;;;;;;;22.71;39.05;100053.88;6210600;23;20164;-37
2021/01/19 10:20:35;;;;;;;7.67;4.30;;;;;;;22.76;38.92;100051.38;6210213;23;20160;-38
2021/01/19 10:23:01;;;;;;;5.60;4.50;;;;;;;22.80;39.24;100046.34;6183941;23;20657;-37
2021/01/19 10:25:34;;;;;;;4.57;3.83;;;;;;;22.84;38.91;100055.81;6209749;23;20179;-36
2021/01/19 10:28:01;;;;;;;4.33;3.93;;;;;;;22.86;39.17;100046.34;6209306;23;20160;-39
2021/01/19 10:30:32;;;;;;;5.30;3.80;;;;;;;22.89;38.97;100051.38;6210465;23;20762;-39
2021/01/19 10:32:58;;;;;;;4.40;4.00;;;;;;;22.95;39.04;100045.09;6184175;23;20180;-40
2021/01/19 10:35:29;;;;;;;5.30;3.80;;;;;;;23.01;38.93;100058.94;6210677;23;20433;-40
2021/01/19 10:37:59;;;;;;;5.87;3.80;;;;;;;23.04;38.96;100036.66;6210492;23;20235;-41
2021/01/19 10:40:25;;;;;;;3.57;3.27;;;;;;;23.07;38.87;100041.69;6210466;23;20221;-41
2021/01/19 10:42:52;;;;;;;4.00;3.60;;;;;;;23.11;39.17;100043.78;6210494;23;20192;-41
2021/01/19 10:45:26;;;;;;;3.90;3.60;;;;;;;23.16;38.90;100041.22;6184891;23;20157;-41
2021/01/19 10:47:53;;;;;;;4.63;3.20;;;;;;;23.19;39.02;100045.47;6210432;23;20467;-40
2021/01/19 10:50:26;;;;;;;4.05;3.20;;;;;;;23.25;38.87;100047.31;6210559;23;20934;-41
2021/01/19 10:52:53;;;;;;;3.42;3.13;;;;;;;23.27;38.99;100031.56;6210435;23;20188;-40
2021/01/19 10:55:20;;;;;;;3.77;3.00;;;;;;;23.30;39.02;100039.31;6210496;23;20176;-41
2021/01/19 10:57:46;;;;;;;3.57;3.27;;;;;;;23.32;39.05;100045.41;6184151;23;20222;-41
2021/01/19 11:00:12;;;;;;;5.75;2.80;;;;;;;23.36;39.01;100035.72;6210258;23;20169;-40
2021/01/19 11:02:39;;;;;;;3.45;3.00;;;;;;;23.39;38.89;100048.09;6183719;23;20846;-41
2021/01/19 11:05:06;;;;;;;4.32;2.85;;;;;;;23.44;38.96;100048.31;6210297;23;20246;-42
2021/01/19 11:07:32;;;;;;;3.10;2.80;;;;;;;23.47;38.75;100048.72;6183948;23;20179;-41
2021/01/19 11:09:58;;;;;;;3.70;2.97;;;;;;;23.50;38.99;100048.28;6209634;23;20164;-41
2021/01/19 11:12:24;;;;;;;3.35;2.90;;;;;;;23.54;38.82;100046.78;6209719;23;20600;-35
2021/01/19 11:14:50;;;;;;;3.85;2.63;;;;;;;23.57;39.03;100040.91;6210320;23;20164;-35
2021/01/19 11:17:16;;;;;;;4.25;2.80;;;;;;;23.60;38.92;100049.72;6210156;23;20164;-35
2021/01/19 11:19:42;;;;;;;2.72;2.53;;;;;;;23.63;38.96;100054.75;6210952;23;20175;-36
2021/01/19 11:22:09;;;;;;;2.88;2.55;;;;;;;23.67;38.73;100036.88;6210429;23;20184;-35
2021/01/19 11:24:35;;;;;;;3.22;2.50;;;;;;;23.70;38.90;100041.91;6183881;23;20196;-35
2021/01/19 11:27:01;;;;;;;2.25;2.13;;;;;;;23.72;38.93;100046.09;6210098;23;20582;-35
2021/01/19 11:29:27;;;;;;;2.88;2.45;;;;;;;23.76;38.88;100030.94;6183828;23;20199;-34
2021/01/19 11:31:53;;;;;;;3.13;2.58;;;;;;;23.80;38.80;100034.06;6210176;23;20220;-40
2021/01/19 11:34:19;;;;;;;3.45;2.25;;;;;;;23.83;38.87;100042.66;6210299;23;20195;-41
2021/01/19 11:36:45;;;;;;;2.75;2.50;;;;;;;23.87;38.78;100053.97;6210045;23;20724;-41
2021/01/19 11:39:11;;;;;;;2.45;2.25;;;;;;;23.88;38.90;100047.47;6210171;23;20704;-41
2021/01/19 11:41:38;;;;;;;2.70;2.13;;;;;;;23.92;38.73;100043.25;6209880;23;20216;-41
2021/01/19 11:44:05;;;;;;;2.50;2.30;;;;;;;23.96;38.72;100035.44;6210698;23;20192;-40
2021/01/19 11:46:32;;;;;;;3.33;2.00;;;;;;;23.98;38.36;100034.16;6212636;23;20248;-40
2021/01/19 11:48:59;;;;;;;2.20;1.95;;;;;;;24.01;38.74;100039.19;6212226;23;20538;-40
2021/01/19 11:51:27;;;;;;;2.00;1.80;;;;;;;24.04;38.66;100032.44;6212165;23;20291;-40
2021/01/19 11:53:55;;;;;;;2.63;2.00;;;;;;;24.06;38.82;100036.63;6211952;23;20207;-42
2021/01/19 11:56:30;;;;;;;2.35;2.10;;;;;;;24.09;38.71;100051.75;6185808;23;20207;-42
2021/01/19 11:58:56;;;;;;;2.78;1.75;;;;;;;24.12;38.69;100040.38;6211749;23;20164;-42
2021/01/19 12:01:22;;;;;;;2.00;1.90;;;;;;;24.15;38.69;100048.16;6211899;23;20489;-42
2021/01/19 12:03:48;;;;;;;2.10;1.90;;;;;;;24.18;38.70;100042.25;6211955;23;20184;-42
2021/01/19 12:06:15;;;;;;;2.17;1.95;;;;;;;24.21;38.88;100043.69;6212024;23;20161;-40
2021/01/19 12:08:41;;;;;;;2.20;2.00;;;;;;;24.23;38.29;100039.66;6185670;23;20172;-40
2021/01/19 12:11:08;;;;;;;3.42;2.00;;;;;;;24.24;38.10;100035.03;6212438;23;20165;-40
2021/01/19 12:13:37;;;;;;;2.28;2.08;;;;;;;24.26;37.84;100054.78;6211935;23;20191;-40
2021/01/19 12:16:04;;;;;;;2.03;1.77;;;;;;;24.24;38.06;100033.13;6212057;23;20160;-40
2021/01/19 12:18:30;;;;;;;2.70;2.30;;;;;;;24.27;37.96;100037.31;6211664;23;20674;-40
2021/01/19 12:20:56;;;;;;;1.75;1.65;;;;;;;24.28;37.73;100028.91;6212325;23;20199;-40
2021/01/19 12:23:23;;;;;;;1.75;1.65;;;;;;;24.30;37.94;100024.06;6211712;23;20201;-40
2021/01/19 12:25:49;;;;;;;2.00;1.80;;;;;;;24.32;38.01;100015.63;6211769;23;20164;-40
2021/01/19 12:28:16;;;;;;;2.30;1.70;;;;;;;24.33;37.97;100033.72;6211652;23;20164;-40
2021/01/19 12:30:42;;;;;;;2.50;1.88;;;;;;;24.35;37.75;100034.34;6211630;23;20164;-40
2021/01/19 12:33:08;;;;;;;2.22;1.80;;;;;;;24.37;37.86;100018.53;6211474;23;20180;-39
2021/01/19 12:35:34;;;;;;;1.85;1.75;;;;;;;24.38;37.96;100012.88;6212102;23;20222;-37
2021/01/19 12:38:00;;;;;;;1.88;1.75;;;;;;;24.40;37.60;100043.56;6213512;23;20558;-37
2021/01/19 12:40:26;;;;;;;2.33;1.95;;;;;;;24.42;37.76;100029.66;6213166;23;20157;-41
2021/01/19 12:42:52;;;;;;;3.80;2.55;;;;;;;24.43;37.62;100020.41;6213127;23;20188;-41
2021/01/19 12:45:18;;;;;;;2.70;2.50;;;;;;;24.42;37.50;100024.19;6187161;23;20558;-45
2021/01/19 12:47:49;;;;;;;3.50;2.58;;;;;;;24.43;37.63;100020.41;6213315;23;20183;-35
2021/01/19 12:50:16;;;;;;;3.17;2.50;;;;;;;24.41;37.80;100028.00;6213513;23;20469;-46
2021/01/19 12:52:42;;;;;;;4.28;2.45;;;;;;;24.40;37.98;100015.38;6214342;23;20156;-46
2021/01/19 12:55:08;;;;;;;4.22;2.30;;;;;;;24.39;37.85;100019.16;6163727;23;20168;-40
2021/01/19 12:57:34;;;;;;;4.40;2.30;;;;;;;24.37;37.88;100026.75;6214856;23;20160;-42
2021/01/19 13:00:00;;;;;;;6.00;2.50;;;;;;;24.36;37.84;100014.13;6215005;23;20505;-42
2021/01/19 13:02:26;;;;;;;3.55;2.50;;;;;;;24.37;37.70;100015.78;6188774;23;20610;-39
2021/01/19 13:04:53;;;;;;;4.00;2.42;;;;;;;24.35;37.74;100040.63;6214918;23;20243;-36
2021/01/19 13:07:22;;;;;;;2.65;2.17;;;;;;;24.37;37.85;100024.00;6215022;23;20156;-50
2021/01/19 13:09:50;;;;;;;2.50;2.30;;;;;;;24.36;37.85;100030.53;6214713;23;20157;-40
2021/01/19 13:12:18;;;;;;;2.58;2.20;;;;;;;24.36;38.03;100019.59;6214772;23;20156;-43